Time;durP1;ratioP1;P1;durP2;ratioP2;P2;SDS_P1;SDS_P2;PMS_P1;PMS_P2;Temp;Humidity;BMP_temperature;BMP_pressure;BME280_temperature;BME280_humidity;BME280_pressure;Samples;Min_cycle;Max_cycle;Signal;HPM_P1;HPM_P2
2023/10/25 00:01:15;;;;;;;27.73;7.47;;;21.00;99.90;;;;;;4887767;29;20036;-89
2023/10/25 00:03:41;;;;;;;37.10;6.90;;;21.10;99.90;;;;;;4903578;29;20104;-88
2023/10/25 00:06:08;;;;;;;38.63;8.23;;;21.00;99.90;;;;;;4887923;29;20084;-88
2023/10/25 00:08:35;;;;;;;25.60;7.40;;;21.00;99.90;;;;;;4903481;29;20032;-88
2023/10/25 00:11:06;;;;;;;49.47;7.53;;;21.10;99.90;;;;;;4888029;29;20032;-88
2023/10/25 00:13:33;;;;;;;32.75;6.82;;;21.00;99.90;;;;;;4903381;29;20028;-88
2023/10/25 00:16:00;;;;;;;25.70;6.38;;;21.00;99.90;;;;;;4887889;29;20035;-88
2023/10/25 00:18:30;;;;;;;29.23;7.30;;;21.00;99.90;;;;;;4888046;29;20051;-88
2023/10/25 00:20:57;;;;;;;21.50;6.95;;;21.00;99.90;;;;;;4903107;29;20076;-88
2023/10/25 00:23:24;;;;;;;28.52;7.32;;;21.00;99.90;;;;;;4887776;29;20111;-88
2023/10/25 00:25:51;;;;;;;21.85;6.82;;;20.90;99.90;;;;;;4887856;29;20036;-88
2023/10/25 00:28:18;;;;;;;25.40;7.38;;;21.00;99.90;;;;;;4897121;29;20406;-89
2023/10/25 00:30:45;;;;;;;27.95;7.32;;;20.90;99.90;;;;;;4887488;29;20035;-88
2023/10/25 00:33:11;;;;;;;25.90;7.63;;;20.90;99.90;;;;;;4887646;29;20107;-88
2023/10/25 00:35:38;;;;;;;30.52;7.20;;;20.90;99.90;;;;;;4902924;29;20478;-88
2023/10/25 00:38:05;;;;;;;28.25;7.43;;;20.90;99.90;;;;;;4902911;29;20043;-88
2023/10/25 00:40:32;;;;;;;21.30;7.35;;;20.90;99.90;;;;;;4887536;29;20047;-88
2023/10/25 00:43:23;;;;;;;39.58;8.00;;;20.90;99.90;;;;;;4903467;29;20052;-89
2023/10/25 00:46:04;;;;;;;24.40;8.18;;;20.90;99.90;;;;;;4897662;29;20100;-87
2023/10/25 00:48:31;;;;;;;27.08;8.02;;;20.90;99.90;;;;;;4907768;29;20028;-88
2023/10/25 00:50:59;;;;;;;37.60;8.05;;;20.90;99.90;;;;;;4910866;29;20028;-88
2023/10/25 00:53:28;;;;;;;36.60;8.88;;;20.90;99.90;;;;;;4893779;29;20029;-88
2023/10/25 00:55:58;;;;;;;28.58;8.55;;;20.90;99.90;;;;;;4910761;29;20032;-88
2023/10/25 00:58:25;;;;;;;32.25;8.60;;;20.90;99.90;;;;;;4890840;29;20167;-87
2023/10/25 01:00:55;;;;;;;31.17;8.18;;;20.90;99.90;;;;;;4890471;29;20115;-87
2023/10/25 01:03:22;;;;;;;26.23;8.43;;;20.90;99.90;;;;;;4874804;29;20188;-88
2023/10/25 01:05:51;;;;;;;25.40;8.25;;;20.90;99.90;;;;;;4890988;29;20029;-88
2023/10/25 01:08:20;;;;;;;26.88;8.23;;;20.90;99.90;;;;;;4888236;29;20024;-87
2023/10/25 01:10:50;;;;;;;22.88;7.72;;;20.90;99.90;;;;;;4901933;29;20031;-88
2023/10/25 01:13:18;;;;;;;28.65;8.15;;;20.90;99.90;;;;;;4886931;29;20039;-88
2023/10/25 01:15:46;;;;;;;27.45;8.90;;;20.90;99.90;;;;;;4902257;29;20371;-88
2023/10/25 01:18:15;;;;;;;28.25;8.30;;;21.00;99.90;;;;;;4902181;29;20032;-88
2023/10/25 01:20:43;;;;;;;38.38;9.02;;;21.00;99.90;;;;;;4892777;29;20582;-88
2023/10/25 01:23:10;;;;;;;29.20;8.02;;;21.00;99.90;;;;;;4880559;29;20064;-88
2023/10/25 01:25:37;;;;;;;28.75;8.07;;;21.00;99.90;;;;;;4880389;29;20552;-88
2023/10/25 01:28:05;;;;;;;34.83;8.50;;;21.00;99.90;;;;;;4895717;29;20029;-88
2023/10/25 01:30:32;;;;;;;38.55;9.35;;;21.00;99.90;;;;;;4895701;29;20029;-88
2023/10/25 01:32:58;;;;;;;32.85;9.27;;;21.10;99.90;;;;;;4880179;29;20368;-89
2023/10/25 01:35:29;;;;;;;32.50;8.43;;;21.10;99.90;;;;;;4895687;29;20510;-89
2023/10/25 01:37:56;;;;;;;30.63;7.90;;;21.10;99.90;;;;;;4895840;29;20398;-88
2023/10/25 01:40:22;;;;;;;37.28;8.25;;;21.10;99.90;;;;;;4895646;29;20504;-88
2023/10/25 01:42:51;;;;;;;26.08;7.70;;;21.10;99.90;;;;;;4880156;29;20041;-88
2023/10/25 01:45:27;;;;;;;29.52;9.18;;;21.10;99.90;;;;;;4895814;29;20025;-89
2023/10/25 01:47:53;;;;;;;39.90;8.98;;;21.20;99.90;;;;;;4876944;29;20033;-89
2023/10/25 01:50:20;;;;;;;21.63;8.00;;;21.20;99.90;;;;;;4864565;29;20031;-88
2023/10/25 01:52:47;;;;;;;36.85;8.15;;;21.20;99.90;;;;;;4879599;29;20112;-89
2023/10/25 01:55:14;;;;;;;29.55;8.73;;;21.20;99.90;;;;;;4879687;29;20044;-89
2023/10/25 01:57:42;;;;;;;31.50;7.63;;;21.20;99.90;;;;;;4879806;29;20029;-89
2023/10/25 02:00:09;;;;;;;38.05;8.30;;;21.20;99.90;;;;;;4879720;29;20033;-88
2023/10/25 02:02:40;;;;;;;21.90;8.85;;;21.30;99.90;;;;;;4879676;29;20503;-89
2023/10/25 02:05:07;;;;;;;25.80;8.30;;;21.30;99.90;;;;;;4879414;29;20040;-89
2023/10/25 02:07:34;;;;;;;37.38;8.35;;;21.30;99.90;;;;;;4879376;29;20029;-89
2023/10/25 02:10:01;;;;;;;30.33;7.68;;;21.30;99.90;;;;;;4880560;29;20033;-89
2023/10/25 02:12:28;;;;;;;23.13;7.40;;;21.30;99.90;;;;;;4885985;29;20031;-88
2023/10/25 02:14:55;;;;;;;30.20;8.23;;;21.30;99.90;;;;;;4884916;29;20085;-88
2023/10/25 02:17:22;;;;;;;36.05;9.80;;;21.30;99.90;;;;;;4884653;29;20025;-88
2023/10/25 02:19:48;;;;;;;29.20;8.02;;;21.40;99.90;;;;;;4883962;29;20089;-88
2023/10/25 02:22:15;;;;;;;20.33;7.78;;;21.30;99.90;;;;;;4882885;29;20423;-88
2023/10/25 02:24:41;;;;;;;36.35;9.00;;;21.30;99.90;;;;;;4898160;29;20482;-89
2023/10/25 02:27:08;;;;;;;31.98;8.82;;;21.30;99.90;;;;;;4882206;29;20119;-90
2023/10/25 02:29:35;;;;;;;42.97;9.07;;;21.30;99.90;;;;;;4867336;29;20038;-88
2023/10/25 02:32:02;;;;;;;27.98;7.88;;;21.40;99.90;;;;;;4867419;29;20033;-88
2023/10/25 02:34:29;;;;;;;32.05;8.60;;;21.40;99.90;;;;;;4881448;29;20054;-88
2023/10/25 02:36:55;;;;;;;36.88;8.73;;;21.40;99.90;;;;;;4851285;29;20381;-88
2023/10/25 02:39:23;;;;;;;35.63;8.45;;;21.40;99.90;;;;;;4880088;29;20120;-89
2023/10/25 02:41:50;;;;;;;33.60;8.10;;;21.40;99.90;;;;;;4878932;29;20116;-89
2023/10/25 02:44:17;;;;;;;33.28;7.55;;;21.40;99.90;;;;;;4894634;29;20037;-88
2023/10/25 02:46:43;;;;;;;29.85;8.20;;;21.40;99.90;;;;;;4879112;29;20494;-89
2023/10/25 02:49:10;;;;;;;34.63;8.88;;;21.40;99.90;;;;;;4894780;29;20097;-89
2023/10/25 02:51:38;;;;;;;37.33;7.57;;;21.50;99.90;;;;;;4879288;29;20036;-88
2023/10/25 02:54:05;;;;;;;43.38;8.70;;;21.40;99.90;;;;;;4879181;29;20029;-89
2023/10/25 02:56:32;;;;;;;34.40;8.52;;;21.40;99.90;;;;;;4879118;29;20037;-88
2023/10/25 02:58:59;;;;;;;40.35;7.97;;;21.40;99.90;;;;;;4894589;29;20058;-89
2023/10/25 03:01:25;;;;;;;38.28;8.30;;;21.40;99.90;;;;;;4879070;29;20044;-88
2023/10/25 03:03:52;;;;;;;42.25;9.10;;;21.50;99.90;;;;;;4894726;29;20116;-89
2023/10/25 03:06:19;;;;;;;36.75;8.02;;;21.50;99.90;;;;;;4879189;29;20435;-89
2023/10/25 03:08:46;;;;;;;29.65;7.63;;;21.40;99.90;;;;;;4894774;29;20032;-89
2023/10/25 03:11:13;;;;;;;27.15;8.55;;;;;;;;;;4879210;29;20239;-87
2023/10/25 03:13:40;;;;;;;28.13;7.70;;;21.40;99.90;;;;;;4879088;29;20123;-87
2023/10/25 03:16:06;;;;;;;35.65;8.68;;;;;;;;;;4878888;29;20112;-88
2023/10/25 03:18:39;;;;;;;33.53;6.80;;;;;;;;;;4878914;29;20029;-87
2023/10/25 03:21:05;;;;;;;23.50;8.55;;;21.50;99.90;;;;;;4893905;29;20541;-86
2023/10/25 03:23:32;;;;;;;42.17;8.43;;;21.50;99.90;;;;;;4878549;29;20040;-88
2023/10/25 03:26:09;;;;;;;27.77;8.25;;;21.50;99.90;;;;;;4878907;29;20041;-88
2023/10/25 03:28:36;;;;;;;27.35;7.63;;;21.50;99.90;;;;;;4894320;29;20423;-88
2023/10/25 03:31:09;;;;;;;29.10;8.13;;;21.50;99.90;;;;;;4878554;29;20025;-88
2023/10/25 03:33:36;;;;;;;24.95;8.38;;;;;;;;;;4881054;29;20061;-87
2023/10/25 03:36:03;;;;;;;39.80;8.65;;;;;;;;;;4882135;29;20503;-87
2023/10/25 03:38:29;;;;;;;27.10;7.68;;;21.50;99.90;;;;;;4870247;29;20602;-85
2023/10/25 03:41:07;;;;;;;28.52;7.72;;;21.60;99.90;;;;;;4877973;29;20385;-85
2023/10/25 03:43:36;;;;;;;32.30;7.95;;;21.50;99.90;;;;;;4878159;29;20041;-85
2023/10/25 03:46:04;;;;;;;33.95;8.45;;;21.60;99.90;;;;;;4863943;29;20056;-86
2023/10/25 03:48:31;;;;;;;41.63;8.52;;;21.50;99.90;;;;;;4878218;29;20029;-84
2023/10/25 03:50:58;;;;;;;36.13;8.75;;;21.60;99.90;;;;;;4862670;29;20520;-86
2023/10/25 03:53:25;;;;;;;32.78;8.23;;;21.60;99.90;;;;;;4882523;29;20395;-86
2023/10/25 03:55:58;;;;;;;34.13;8.70;;;;;;;;;;4881071;29;20029;-86
2023/10/25 03:58:25;;;;;;;30.50;8.67;;;;;;;;;;4881033;29;20132;-86
2023/10/25 04:01:02;;;;;;;43.65;9.07;;;;;;;;;;4896454;29;20294;-86
2023/10/25 04:03:30;;;;;;;23.35;8.35;;;;;;;;;;4896094;29;20025;-85
2023/10/25 04:05:56;;;;;;;34.13;8.65;;;;;;;;;;4880613;29;20061;-87
2023/10/25 04:08:26;;;;;;;37.53;8.13;;;;;;;;;;4880799;29;20033;-86
2023/10/25 04:10:55;;;;;;;41.10;7.93;;;;;;;;;;4898281;29;20041;-86
2023/10/25 04:13:22;;;;;;;42.10;8.05;;;;;;;;;;4899295;29;20029;-87
2023/10/25 04:16:03;;;;;;;22.42;7.80;;;21.60;99.90;;;;;;4898123;29;20468;-88
2023/10/25 04:18:31;;;;;;;26.48;8.38;;;21.50;99.90;;;;;;4880662;29;20040;-87
2023/10/25 04:20:58;;;;;;;47.30;9.43;;;;;;;;;;4898539;29;20057;-88
2023/10/25 04:23:31;;;;;;;34.10;8.13;;;;;;;;;;4888076;29;20033;-89
2023/10/25 04:26:10;;;;;;;31.75;8.75;;;21.60;99.90;;;;;;4881743;29;20052;-89
2023/10/25 04:28:44;;;;;;;29.42;8.13;;;21.60;99.90;;;;;;4886691;29;20037;-89
2023/10/25 04:31:11;;;;;;;;;;;21.60;99.90;;;;;;4888156;29;20033;-87
2023/10/25 04:33:38;;;;;;;26.80;7.78;;;21.60;99.90;;;;;;4872359;29;19907;-87
2023/10/25 04:36:06;;;;;;;29.90;8.50;;;21.60;99.90;;;;;;4886772;29;20037;-88
2023/10/25 04:38:32;;;;;;;42.65;8.25;;;21.60;99.90;;;;;;4883957;29;20608;-88
2023/10/25 04:40:59;;;;;;;39.72;8.32;;;21.60;99.90;;;;;;4885281;29;20041;-87
2023/10/25 04:43:29;;;;;;;46.10;9.07;;;21.60;99.90;;;;;;4884621;29;20029;-89
2023/10/25 04:45:55;;;;;;;30.02;8.48;;;21.60;99.90;;;;;;4881297;29;20037;-89
2023/10/25 04:48:22;;;;;;;32.45;8.45;;;21.60;99.90;;;;;;4871490;29;20471;-89
2023/10/25 04:50:48;;;;;;;44.10;8.10;;;21.60;99.90;;;;;;4896371;29;20033;-89
2023/10/25 04:53:14;;;;;;;34.40;8.27;;;21.60;99.90;;;;;;4880784;29;20033;-89
2023/10/25 04:55:46;;;;;;;44.65;8.55;;;21.60;99.90;;;;;;4880226;29;20586;-89
2023/10/25 04:58:12;;;;;;;31.08;8.07;;;21.60;99.90;;;;;;4880270;29;20033;-89
2023/10/25 05:00:38;;;;;;;40.95;7.85;;;21.50;99.90;;;;;;4880798;29;20033;-89
2023/10/25 05:03:10;;;;;;;37.17;9.35;;;21.60;99.90;;;;;;4880182;29;20076;-89
2023/10/25 05:05:39;;;;;;;27.10;8.43;;;21.60;99.90;;;;;;4880582;29;20431;-89
2023/10/25 05:08:06;;;;;;;28.30;8.15;;;21.60;99.90;;;;;;4880537;29;20036;-89
2023/10/25 05:10:33;;;;;;;37.97;8.43;;;21.50;99.90;;;;;;4880484;29;20029;-89
2023/10/25 05:12:59;;;;;;;24.50;7.63;;;21.50;99.90;;;;;;4880580;29;20025;-89
2023/10/25 05:15:28;;;;;;;27.45;8.10;;;21.60;99.90;;;;;;4880520;29;20044;-90
2023/10/25 05:17:56;;;;;;;24.73;7.85;;;21.60;99.90;;;;;;4880533;29;20029;-89
2023/10/25 05:20:22;;;;;;;38.60;8.90;;;21.60;99.90;;;;;;4886021;29;20044;-89
2023/10/25 05:22:55;;;;;;;27.33;8.00;;;21.70;99.90;;;;;;4902208;29;20042;-89
2023/10/25 05:25:22;;;;;;;32.15;8.50;;;21.70;99.90;;;;;;4886783;29;20036;-89
2023/10/25 05:27:52;;;;;;;32.67;8.07;;;21.70;99.90;;;;;;4902257;29;20060;-89
2023/10/25 05:30:21;;;;;;;42.72;8.18;;;21.70;99.90;;;;;;4901219;29;20039;-90
2023/10/25 05:32:53;;;;;;;30.15;7.30;;;21.70;99.90;;;;;;4901583;29;20406;-87
2023/10/25 05:35:20;;;;;;;33.22;9.15;;;21.80;99.90;;;;;;4916906;29;20398;-87
2023/10/25 05:37:47;;;;;;;32.97;9.02;;;21.80;99.90;;;;;;4901137;29;20530;-85
2023/10/25 05:40:13;;;;;;;34.95;7.97;;;21.70;99.90;;;;;;4900801;29;20581;-86
2023/10/25 05:42:49;;;;;;;39.97;8.10;;;;;;;;;;4916142;29;20107;-85
2023/10/25 05:45:18;;;;;;;27.48;7.72;;;21.70;99.90;;;;;;4906229;29;20410;-84
2023/10/25 05:47:48;;;;;;;32.53;7.78;;;21.70;99.90;;;;;;4900709;29;20538;-87
2023/10/25 05:50:15;;;;;;;27.83;7.82;;;;;;;;;;4900979;29;20425;-86
2023/10/25 05:52:45;;;;;;;35.47;8.32;;;21.80;99.90;;;;;;4917044;29;20348;-86
2023/10/25 05:55:15;;;;;;;35.00;7.55;;;21.80;99.90;;;;;;4900624;29;20036;-85
2023/10/25 05:57:42;;;;;;;34.08;7.18;;;21.80;99.90;;;;;;4900196;29;20474;-84
2023/10/25 06:00:09;;;;;;;40.40;8.30;;;21.90;99.90;;;;;;4900600;29;20131;-85
2023/10/25 06:02:37;;;;;;;38.45;8.00;;;;;;;;;;4900170;29;20509;-85
2023/10/25 06:05:04;;;;;;;28.23;8.70;;;;;;;;;;4900421;29;20032;-87
2023/10/25 06:07:30;;;;;;;38.00;7.60;;;;;;;;;;4898857;29;20036;-86
2023/10/25 06:09:57;;;;;;;37.92;7.72;;;22.10;99.90;;;;;;4875356;29;20020;-86
2023/10/25 06:12:24;;;;;;;41.35;8.60;;;;;;;;;;4916862;29;20024;-87
2023/10/25 06:14:51;;;;;;;31.23;8.32;;;;;;;;;;4916669;29;20534;-86
2023/10/25 06:17:17;;;;;;;32.78;7.57;;;;;;;;;;4900703;29;20039;-85
2023/10/25 06:19:44;;;;;;;46.17;7.60;;;;;;;;;;4881691;29;20028;-86
2023/10/25 06:22:11;;;;;;;35.50;6.53;;;;;;;;;;4862145;29;20136;-88
2023/10/25 06:24:39;;;;;;;34.95;8.57;;;;;;;;;;4875903;29;20471;-87
2023/10/25 06:27:05;;;;;;;26.17;7.32;;;;;;;;;;4860440;29;20040;-87
2023/10/25 06:29:32;;;;;;;40.75;7.40;;;;;;;;;;4860579;29;20056;-87
2023/10/25 06:32:00;;;;;;;35.22;8.38;;;;;;;;;;4860439;29;20022;-86
2023/10/25 06:34:27;;;;;;;22.55;7.15;;;;;;;;;;4875931;29;20034;-87
2023/10/25 06:36:54;;;;;;;34.13;7.78;;;;;;;;;;4876239;29;20030;-86
2023/10/25 06:39:21;;;;;;;36.00;7.60;;;;;;;;;;4875933;29;20044;-88
2023/10/25 06:41:48;;;;;;;34.50;8.07;;;;;;;;;;4860184;29;20085;-86
2023/10/25 06:44:15;;;;;;;31.40;8.02;;;;;;;;;;4860184;29;20034;-89
2023/10/25 06:46:42;;;;;;;33.28;9.82;;;;;;;;;;4860805;29;20036;-87
2023/10/25 06:49:09;;;;;;;46.78;9.32;;;;;;;;;;4860373;29;20029;-89
2023/10/25 06:51:36;;;;;;;31.98;8.00;;;;;;;;;;4860576;29;20113;-87
2023/10/25 06:54:03;;;;;;;36.30;8.43;;;;;;;;;;4861139;29;20030;-87
2023/10/25 06:56:30;;;;;;;35.17;9.85;;;;;;;;;;4860535;29;20102;-87
2023/10/25 06:58:56;;;;;;;36.25;8.13;;;;;;;;;;4881210;29;20061;-87
2023/10/25 07:01:24;;;;;;;49.83;9.75;;;;;;;;;;4877151;29;20052;-87
2023/10/25 07:03:51;;;;;;;31.75;8.77;;;;;;;;;;4878423;29;20021;-87
2023/10/25 07:06:18;;;;;;;42.53;10.85;;;;;;;;;;4889862;29;20486;-87
2023/10/25 07:08:45;;;;;;;41.15;8.80;;;;;;;;;;4888629;29;20043;-87
2023/10/25 07:11:12;;;;;;;41.83;8.40;;;;;;;;;;4881889;29;20036;-87
2023/10/25 07:13:39;;;;;;;42.40;9.30;;;;;;;;;;4866157;29;20036;-87
2023/10/25 07:16:07;;;;;;;40.78;9.32;;;;;;;;;;4882087;29;20075;-87
2023/10/25 07:18:34;;;;;;;48.28;9.38;;;;;;;;;;4882180;29;20116;-87
2023/10/25 07:21:02;;;;;;;39.63;8.60;;;;;;;;;;4898254;29;20096;-87
2023/10/25 07:23:29;;;;;;;37.58;9.18;;;;;;;;;;4888353;29;20042;-87
2023/10/25 07:25:55;;;;;;;45.30;8.75;;;22.50;99.90;;;;;;4903899;29;20036;-87
2023/10/25 07:28:22;;;;;;;43.20;9.40;;;;;;;;;;4900699;29;20029;-87
2023/10/25 07:30:48;;;;;;;40.35;8.43;;;;;;;;;;4900699;29;20039;-87
2023/10/25 07:33:17;;;;;;;29.67;7.05;;;;;;;;;;4885015;29;20067;-87
2023/10/25 07:35:44;;;;;;;36.92;8.18;;;22.60;99.90;;;;;;4899835;29;20382;-87
2023/10/25 07:38:11;;;;;;;40.63;8.77;;;;;;;;;;4903730;29;20031;-87
2023/10/25 07:40:38;;;;;;;48.78;8.88;;;22.60;99.90;;;;;;4903568;29;20062;-86
2023/10/25 07:43:05;;;;;;;57.03;10.05;;;;;;;;;;4912904;29;20039;-87
2023/10/25 07:45:31;;;;;;;28.48;8.52;;;22.60;99.90;;;;;;4887655;29;20047;-87
2023/10/25 07:47:58;;;;;;;47.08;8.27;;;22.60;99.90;;;;;;4903358;29;20486;-87
2023/10/25 07:50:24;;;;;;;31.08;7.82;;;22.60;99.90;;;;;;4903217;29;20032;-86
2023/10/25 07:52:52;;;;;;;35.97;8.30;;;22.70;99.90;;;;;;4902999;29;20028;-87
2023/10/25 07:55:18;;;;;;;42.30;8.57;;;22.70;99.90;;;;;;4902938;29;20489;-90
2023/10/25 07:57:45;;;;;;;50.65;10.05;;;;;;;;;;4903424;29;20036;-87
2023/10/25 08:00:12;;;;;;;37.03;7.95;;;;;;;;;;4887201;29;20036;-87
2023/10/25 08:02:39;;;;;;;42.83;7.43;;;;;;;;;;4903021;29;20036;-86
2023/10/25 08:05:06;;;;;;;64.35;8.05;;;23.10;99.90;;;;;;4903228;29;20040;-87
2023/10/25 08:07:36;;;;;;;44.97;8.90;;;;;;;;;;4900365;29;20028;-87
2023/10/25 08:10:05;;;;;;;40.00;8.50;;;;;;;;;;4887727;29;20107;-88
2023/10/25 08:12:35;;;;;;;40.83;8.35;;;;;;;;;;4902813;29;20024;-82
2023/10/25 08:15:02;;;;;;;44.88;9.98;;;;;;;;;;4914362;29;20490;-84
2023/10/25 08:17:29;;;;;;;41.70;8.90;;;;;;;;;;4918025;29;20024;-85
2023/10/25 08:19:56;;;;;;;48.03;9.30;;;;;;;;;;4900675;29;20063;-85
2023/10/25 08:22:23;;;;;;;36.45;9.57;;;;;;;;;;4901589;29;20485;-86
2023/10/25 08:24:50;;;;;;;39.28;9.23;;;;;;;;;;4901265;29;20032;-83
2023/10/25 08:27:19;;;;;;;34.85;8.77;;;;;;;;;;4901501;29;20135;-84
2023/10/25 08:29:46;;;;;;;47.00;9.30;;;23.70;99.90;;;;;;4899626;29;20039;-89
2023/10/25 08:32:12;;;;;;;43.30;11.45;;;23.90;99.90;;;;;;4902156;29;20048;-88
2023/10/25 08:34:45;;;;;;;48.78;10.88;;;24.00;99.90;;;;;;4902541;29;20027;-88
2023/10/25 08:37:15;;;;;;;41.67;9.93;;;24.30;99.90;;;;;;4902215;29;20028;-83
2023/10/25 08:39:47;;;;;;;39.08;11.70;;;;;;;;;;4918538;29;20068;-82
2023/10/25 08:42:13;;;;;;;49.35;15.10;;;24.50;99.90;;;;;;4919066;29;20441;-90
2023/10/25 08:44:43;;;;;;;54.40;14.82;;;24.70;99.90;;;;;;4901954;29;20024;-85
2023/10/25 08:47:11;;;;;;;46.13;15.25;;;24.90;99.90;;;;;;4902460;29;20538;-88
2023/10/25 08:49:41;;;;;;;60.80;15.90;;;24.90;99.90;;;;;;4903068;29;20435;-88
2023/10/25 08:52:13;;;;;;;35.53;16.35;;;;;;;;;;4903325;29;20032;-88
2023/10/25 08:54:40;;;;;;;43.72;15.25;;;25.10;99.90;;;;;;4887692;29;20020;-87
2023/10/25 08:57:07;;;;;;;53.08;16.20;;;25.20;99.90;;;;;;4902907;29;20059;-87
2023/10/25 08:59:45;;;;;;;43.97;15.85;;;25.20;99.90;;;;;;4902849;29;20024;-88
2023/10/25 09:02:13;;;;;;;43.00;15.80;;;25.20;99.90;;;;;;4886418;29;20044;-89
2023/10/25 09:04:58;;;;;;;37.03;16.00;;;25.20;99.90;;;;;;4902820;29;20491;-87
2023/10/25 09:07:34;;;;;;;39.92;19.60;;;25.20;99.90;;;;;;4897910;29;20040;-87
2023/10/25 09:10:03;;;;;;;60.10;24.67;;;;;;;;;;4883606;29;20133;-88
2023/10/25 09:12:31;;;;;;;49.78;21.13;;;25.20;99.90;;;;;;4909563;29;20036;-87
2023/10/25 09:14:59;;;;;;;42.78;18.52;;;25.20;99.90;;;;;;4901948;29;20052;-88
2023/10/25 09:17:25;;;;;;;36.90;17.23;;;25.20;99.90;;;;;;4902395;29;20084;-87
2023/10/25 09:19:52;;;;;;;43.42;20.25;;;25.30;99.90;;;;;;4902629;29;20028;-86
2023/10/25 09:22:26;;;;;;;69.22;27.27;;;25.20;99.90;;;;;;4885862;29;20048;-87
2023/10/25 09:25:00;;;;;;;44.83;19.08;;;25.30;99.90;;;;;;4901984;29;20075;-87
2023/10/25 09:27:30;;;;;;;46.90;20.70;;;25.10;99.90;;;;;;4886666;29;20043;-87
2023/10/25 09:30:13;;;;;;;55.55;22.88;;;25.00;99.90;;;;;;4901066;29;20106;-85
2023/10/25 09:32:40;;;;;;;77.13;32.28;;;25.00;99.90;;;;;;4885963;29;20111;-87
2023/10/25 09:35:07;;;;;;;65.25;26.42;;;24.90;99.90;;;;;;4901504;29;20032;-88
2023/10/25 09:37:33;;;;;;;47.95;19.92;;;25.00;99.90;;;;;;4901139;29;20032;-87
2023/10/25 09:40:00;;;;;;;51.65;19.30;;;25.00;99.90;;;;;;4901266;29;20043;-87
2023/10/25 09:42:28;;;;;;;65.55;22.65;;;25.00;99.90;;;;;;4899516;29;20087;-87
2023/10/25 09:45:04;;;;;;;50.97;19.60;;;24.90;99.90;;;;;;4901623;29;20111;-87
2023/10/25 09:47:40;;;;;;;44.63;18.95;;;24.80;99.90;;;;;;4886166;29;20040;-87
2023/10/25 09:50:16;;;;;;;77.75;31.27;;;24.70;99.90;;;;;;4901675;29;20040;-86
2023/10/25 09:52:48;;;;;;;84.20;30.23;;;24.50;99.90;;;;;;4886081;29;20024;-87
2023/10/25 09:55:31;;;;;;;94.45;33.83;;;24.50;99.90;;;;;;4901621;29;20412;-87
2023/10/25 09:57:59;;;;;;;79.38;27.83;;;24.50;99.90;;;;;;4901173;29;20064;-87
2023/10/25 10:00:27;;;;;;;87.25;31.13;;;24.70;99.90;;;;;;4916885;29;20064;-81
2023/10/25 10:03:24;;;;;;;62.42;22.77;;;24.70;99.90;;;;;;4916841;29;20028;-81
2023/10/25 10:06:18;;;;;;;56.38;18.77;;;24.60;99.90;;;;;;4884446;29;20032;-84
2023/10/25 10:08:52;;;;;;;52.13;18.27;;;24.70;99.90;;;;;;4892524;29;20035;-81
2023/10/25 10:11:27;;;;;;;54.95;16.38;;;24.60;99.90;;;;;;4916833;29;20041;-83
2023/10/25 10:14:28;;;;;;;50.15;17.45;;;24.60;99.90;;;;;;4899779;29;20059;-82
2023/10/25 10:17:19;;;;;;;71.03;21.52;;;24.70;99.90;;;;;;4892449;29;20059;-82
2023/10/25 10:19:53;;;;;;;48.45;18.15;;;24.50;99.90;;;;;;4898732;29;20371;-82
2023/10/25 10:22:20;;;;;;;54.70;17.52;;;24.50;99.90;;;;;;4899804;29;20079;-83
2023/10/25 10:24:58;;;;;;;57.63;18.15;;;24.30;99.90;;;;;;4916495;29;20025;-81
2023/10/25 10:27:27;;;;;;;46.08;16.75;;;24.40;99.90;;;;;;4899870;29;20068;-83
2023/10/25 10:29:53;;;;;;;37.30;14.68;;;24.50;99.90;;;;;;4899536;29;20075;-82
2023/10/25 10:32:20;;;;;;;54.15;16.30;;;24.50;99.90;;;;;;4900066;29;20443;-83
2023/10/25 10:34:53;;;;;;;88.43;26.58;;;24.50;99.90;;;;;;4900053;29;20048;-82
2023/10/25 10:37:29;;;;;;;58.20;18.00;;;24.60;99.90;;;;;;4899663;29;20056;-83
2023/10/25 10:39:56;;;;;;;51.88;15.27;;;24.50;99.90;;;;;;4899609;29;20040;-83
2023/10/25 10:42:31;;;;;;;44.03;15.63;;;24.60;99.90;;;;;;4917141;29;20043;-83
2023/10/25 10:44:59;;;;;;;49.92;16.77;;;24.60;99.90;;;;;;4903182;29;20076;-85
2023/10/25 10:47:44;;;;;;;45.03;15.80;;;24.70;99.90;;;;;;4903559;29;20036;-85
2023/10/25 10:50:13;;;;;;;43.08;16.58;;;24.80;99.90;;;;;;4908853;29;20083;-85
2023/10/25 10:52:45;;;;;;;49.40;16.90;;;24.90;99.90;;;;;;4885254;29;20021;-84
2023/10/25 10:55:20;;;;;;;45.28;17.88;;;24.70;99.90;;;;;;4903037;29;20115;-83
2023/10/25 10:57:48;;;;;;;48.60;16.05;;;24.90;99.90;;;;;;4903596;29;20084;-85
2023/10/25 11:00:19;;;;;;;63.05;18.20;;;24.90;99.90;;;;;;4919947;29;20030;-82
2023/10/25 11:02:50;;;;;;;47.55;18.40;;;24.90;99.90;;;;;;4903077;29;20036;-84
2023/10/25 11:05:22;;;;;;;59.28;18.42;;;24.90;99.90;;;;;;4887435;29;20507;-83
2023/10/25 11:07:51;;;;;;;47.00;18.13;;;25.10;99.90;;;;;;4902644;29;20079;-84
2023/10/25 11:10:18;;;;;;;53.85;23.65;;;25.40;99.90;;;;;;4902448;29;20076;-83
2023/10/25 11:12:47;;;;;;;43.13;18.30;;;25.50;99.90;;;;;;4902642;29;20390;-84
2023/10/25 11:15:14;;;;;;;66.15;21.25;;;25.50;99.90;;;;;;4887247;29;20095;-84
2023/10/25 11:17:40;;;;;;;56.15;21.95;;;25.50;99.90;;;;;;4902819;29;20246;-84
2023/10/25 11:20:07;;;;;;;54.63;20.27;;;25.30;99.90;;;;;;4903051;29;20043;-84
2023/10/25 11:22:36;;;;;;;61.30;18.88;;;25.10;99.90;;;;;;4902811;29;20048;-85
2023/10/25 11:25:12;;;;;;;54.95;23.08;;;25.00;99.90;;;;;;4902684;29;20510;-85
2023/10/25 11:27:38;;;;;;;76.68;24.67;;;24.90;99.90;;;;;;4902789;29;20032;-84
2023/10/25 11:30:06;;;;;;;59.13;20.08;;;24.80;99.90;;;;;;4887221;29;20415;-87
2023/10/25 11:32:33;;;;;;;67.35;18.88;;;24.70;99.90;;;;;;4887698;29;20537;-86
2023/10/25 11:35:00;;;;;;;38.65;15.63;;;24.90;99.90;;;;;;4903000;29;20025;-86
2023/10/25 11:37:43;;;;;;;55.58;17.05;;;25.00;99.90;;;;;;4902598;29;20024;-86
2023/10/25 11:40:11;;;;;;;50.63;18.08;;;25.10;99.90;;;;;;4893698;29;20367;-86
2023/10/25 11:42:38;;;;;;;72.53;23.50;;;25.40;99.90;;;;;;4887233;29;20032;-87
2023/10/25 11:45:06;;;;;;;65.53;24.67;;;25.50;99.90;;;;;;4903443;29;20069;-90
2023/10/25 11:47:33;;;;;;;68.43;25.95;;;25.60;99.90;;;;;;4903521;29;20430;-87
2023/10/25 11:50:01;;;;;;;52.83;19.67;;;25.60;99.90;;;;;;4903053;29;20390;-85
2023/10/25 11:52:29;;;;;;;67.22;23.75;;;25.60;99.90;;;;;;4902515;29;20036;-83
2023/10/25 11:54:57;;;;;;;61.70;23.00;;;25.80;99.90;;;;;;4902181;29;20076;-84
2023/10/25 11:57:31;;;;;;;55.42;23.80;;;25.90;99.90;;;;;;4888722;29;20028;-89
2023/10/25 11:59:58;;;;;;;65.70;22.70;;;25.80;99.90;;;;;;4903218;29;20032;-90
2023/10/25 12:02:26;;;;;;;62.50;24.52;;;26.10;99.90;;;;;;4903688;29;20446;-88
2023/10/25 12:04:54;;;;;;;53.42;22.33;;;26.10;99.90;;;;;;4903220;29;20079;-89
2023/10/25 12:07:21;;;;;;;68.75;23.63;;;26.10;99.90;;;;;;4902983;29;20032;-89
2023/10/25 12:09:49;;;;;;;45.85;19.05;;;26.10;99.90;;;;;;4903375;29;20043;-88
2023/10/25 12:12:16;;;;;;;47.20;20.38;;;26.00;99.90;;;;;;4887914;29;20386;-90
2023/10/25 12:14:44;;;;;;;47.65;19.73;;;25.70;99.90;;;;;;4902458;29;20028;-87
2023/10/25 12:17:10;;;;;;;69.07;26.45;;;25.30;99.90;;;;;;4901959;29;20024;-84
2023/10/25 12:19:39;;;;;;;53.10;20.50;;;25.20;99.90;;;;;;4899547;29;20053;-86
2023/10/25 12:22:09;;;;;;;37.83;15.60;;;25.00;99.90;;;;;;4897114;29;20132;-86
2023/10/25 12:24:37;;;;;;;52.55;15.55;;;24.90;99.90;;;;;;4880624;29;20045;-88
2023/10/25 12:27:06;;;;;;;39.92;15.75;;;24.60;99.90;;;;;;4880314;29;20397;-86
2023/10/25 12:29:34;;;;;;;51.53;15.00;;;24.40;99.90;;;;;;4886680;29;20085;-90
2023/10/25 12:32:03;;;;;;;45.60;14.65;;;24.30;99.90;;;;;;4880812;29;20028;-88
2023/10/25 12:34:30;;;;;;;54.45;20.05;;;24.10;99.90;;;;;;4880764;29;20033;-84
2023/10/25 12:36:59;;;;;;;74.65;23.17;;;24.00;99.90;;;;;;4879754;29;20036;-89
2023/10/25 12:39:26;;;;;;;56.03;18.95;;;23.80;99.90;;;;;;4856949;29;20033;-88
2023/10/25 12:41:53;;;;;;;67.88;24.02;;;23.40;99.90;;;;;;4864996;29;20045;-86
2023/10/25 12:44:19;;;;;;;55.33;15.02;;;23.10;99.90;;;;;;4865134;29;20463;-86
2023/10/25 12:46:46;;;;;;;52.75;11.82;;;23.00;99.90;;;;;;4880299;29;20040;-85
2023/10/25 12:49:15;;;;;;;79.10;25.92;;;22.90;99.90;;;;;;4879746;29;20029;-82
2023/10/25 12:51:41;;;;;;;56.92;17.63;;;23.00;99.90;;;;;;4879427;29;20104;-82
2023/10/25 12:54:08;;;;;;;42.92;10.65;;;23.00;99.90;;;;;;4880342;29;20044;-85
2023/10/25 12:56:34;;;;;;;39.83;9.60;;;23.10;99.90;;;;;;4879049;29;20029;-82
2023/10/25 12:59:01;;;;;;;45.40;11.68;;;23.20;99.90;;;;;;4878852;29;20488;-82
2023/10/25 13:01:28;;;;;;;55.95;14.85;;;23.30;99.90;;;;;;4874273;29;20132;-83
2023/10/25 13:03:54;;;;;;;50.45;11.45;;;23.30;99.90;;;;;;4863648;29;20021;-83